sensor_id;sensor_type;location;lat;lon;timestamp;P1;durP1;ratioP1;P2;durP2;ratioP2
13439;SDS011;6792;57.698;11.946;2022-12-07T00:01:46;7.63;;;4.10;;
13439;SDS011;6792;57.698;11.946;2022-12-07T00:04:16;7.43;;;4.00;;
13439;SDS011;6792;57.698;11.946;2022-12-07T00:06:46;10.17;;;4.40;;
13439;SDS011;6792;57.698;11.946;2022-12-07T00:09:19;6.47;;;3.70;;
13439;SDS011;6792;57.698;11.946;2022-12-07T00:11:50;6.73;;;4.07;;
13439;SDS011;6792;57.698;11.946;2022-12-07T00:14:20;7.33;;;4.17;;
13439;SDS011;6792;57.698;11.946;2022-12-07T00:16:49;9.17;;;4.70;;
13439;SDS011;6792;57.698;11.946;2022-12-07T00:19:19;10.83;;;4.30;;
13439;SDS011;6792;57.698;11.946;2022-12-07T00:21:48;8.23;;;4.17;;
13439;SDS011;6792;57.698;11.946;2022-12-07T00:24:17;7.80;;;4.23;;
13439;SDS011;6792;57.698;11.946;2022-12-07T00:26:47;8.33;;;3.90;;
13439;SDS011;6792;57.698;11.946;2022-12-07T00:29:17;7.03;;;3.97;;
13439;SDS011;6792;57.698;11.946;2022-12-07T00:31:49;8.47;;;4.13;;
13439;SDS011;6792;57.698;11.946;2022-12-07T00:34:18;10.33;;;3.97;;
13439;SDS011;6792;57.698;11.946;2022-12-07T00:36:49;6.90;;;4.10;;
13439;SDS011;6792;57.698;11.946;2022-12-07T00:39:18;7.97;;;4.03;;
13439;SDS011;6792;57.698;11.946;2022-12-07T00:41:47;6.63;;;3.83;;
13439;SDS011;6792;57.698;11.946;2022-12-07T00:44:16;6.83;;;3.93;;
13439;SDS011;6792;57.698;11.946;2022-12-07T00:46:45;8.37;;;4.07;;
13439;SDS011;6792;57.698;11.946;2022-12-07T00:49:14;7.20;;;4.47;;
13439;SDS011;6792;57.698;11.946;2022-12-07T00:51:45;8.37;;;4.20;;
13439;SDS011;6792;57.698;11.946;2022-12-07T00:54:16;7.87;;;4.27;;
13439;SDS011;6792;57.698;11.946;2022-12-07T00:56:47;7.07;;;4.33;;
13439;SDS011;6792;57.698;11.946;2022-12-07T00:59:16;6.80;;;3.93;;
13439;SDS011;6792;57.698;11.946;2022-12-07T01:01:46;7.07;;;4.03;;
13439;SDS011;6792;57.698;11.946;2022-12-07T01:04:15;6.47;;;4.07;;
13439;SDS011;6792;57.698;11.946;2022-12-07T01:06:44;11.63;;;4.77;;
13439;SDS011;6792;57.698;11.946;2022-12-07T01:09:13;6.73;;;3.80;;
13439;SDS011;6792;57.698;11.946;2022-12-07T01:11:42;8.27;;;3.67;;
13439;SDS011;6792;57.698;11.946;2022-12-07T01:14:11;6.73;;;4.30;;
13439;SDS011;6792;57.698;11.946;2022-12-07T01:16:40;7.10;;;4.30;;
13439;SDS011;6792;57.698;11.946;2022-12-07T01:19:09;7.20;;;4.00;;
13439;SDS011;6792;57.698;11.946;2022-12-07T01:21:38;10.63;;;4.10;;
13439;SDS011;6792;57.698;11.946;2022-12-07T01:24:09;9.17;;;3.90;;
13439;SDS011;6792;57.698;11.946;2022-12-07T01:26:38;9.80;;;4.63;;
13439;SDS011;6792;57.698;11.946;2022-12-07T01:29:08;6.80;;;4.00;;
13439;SDS011;6792;57.698;11.946;2022-12-07T01:31:37;7.77;;;4.20;;
13439;SDS011;6792;57.698;11.946;2022-12-07T01:34:06;7.33;;;3.93;;
13439;SDS011;6792;57.698;11.946;2022-12-07T01:36:36;7.37;;;4.00;;
13439;SDS011;6792;57.698;11.946;2022-12-07T01:39:06;9.23;;;3.70;;
13439;SDS011;6792;57.698;11.946;2022-12-07T01:41:38;8.73;;;4.37;;
13439;SDS011;6792;57.698;11.946;2022-12-07T01:44:11;7.13;;;4.03;;
13439;SDS011;6792;57.698;11.946;2022-12-07T01:46:43;7.63;;;4.13;;
13439;SDS011;6792;57.698;11.946;2022-12-07T01:49:15;5.73;;;3.77;;
13439;SDS011;6792;57.698;11.946;2022-12-07T01:51:51;6.50;;;3.17;;
13439;SDS011;6792;57.698;11.946;2022-12-07T01:54:24;6.17;;;3.40;;
13439;SDS011;6792;57.698;11.946;2022-12-07T01:56:54;6.73;;;3.77;;
13439;SDS011;6792;57.698;11.946;2022-12-07T01:59:24;6.10;;;3.33;;
13439;SDS011;6792;57.698;11.946;2022-12-07T02:01:54;10.50;;;3.63;;
13439;SDS011;6792;57.698;11.946;2022-12-07T02:04:24;9.50;;;3.97;;
13439;SDS011;6792;57.698;11.946;2022-12-07T02:06:53;6.77;;;3.43;;
13439;SDS011;6792;57.698;11.946;2022-12-07T02:09:24;4.87;;;3.40;;
13439;SDS011;6792;57.698;11.946;2022-12-07T02:11:54;7.57;;;3.40;;
13439;SDS011;6792;57.698;11.946;2022-12-07T02:14:23;4.80;;;3.17;;
13439;SDS011;6792;57.698;11.946;2022-12-07T02:16:57;5.27;;;3.73;;
13439;SDS011;6792;57.698;11.946;2022-12-07T02:22:46;7.27;;;3.30;;
13439;SDS011;6792;57.698;11.946;2022-12-07T02:25:26;8.17;;;3.50;;
13439;SDS011;6792;57.698;11.946;2022-12-07T02:27:58;5.70;;;3.30;;
13439;SDS011;6792;57.698;11.946;2022-12-07T02:30:31;7.10;;;3.47;;
13439;SDS011;6792;57.698;11.946;2022-12-07T02:33:04;7.83;;;3.43;;
13439;SDS011;6792;57.698;11.946;2022-12-07T02:35:37;6.43;;;3.50;;
13439;SDS011;6792;57.698;11.946;2022-12-07T02:38:08;9.70;;;3.53;;
13439;SDS011;6792;57.698;11.946;2022-12-07T02:40:41;7.20;;;3.43;;
13439;SDS011;6792;57.698;11.946;2022-12-07T02:43:14;5.17;;;3.40;;
13439;SDS011;6792;57.698;11.946;2022-12-07T02:45:44;7.53;;;2.90;;
13439;SDS011;6792;57.698;11.946;2022-12-07T02:48:16;6.20;;;3.33;;
13439;SDS011;6792;57.698;11.946;2022-12-07T02:50:48;5.67;;;3.60;;
13439;SDS011;6792;57.698;11.946;2022-12-07T02:53:31;7.60;;;3.13;;
13439;SDS011;6792;57.698;11.946;2022-12-07T02:56:05;7.53;;;3.70;;
13439;SDS011;6792;57.698;11.946;2022-12-07T02:58:39;6.47;;;3.63;;
13439;SDS011;6792;57.698;11.946;2022-12-07T03:01:19;4.67;;;3.03;;
13439;SDS011;6792;57.698;11.946;2022-12-07T03:03:54;3.27;;;2.73;;
13439;SDS011;6792;57.698;11.946;2022-12-07T03:06:25;5.43;;;2.97;;
13439;SDS011;6792;57.698;11.946;2022-12-07T03:09:00;6.57;;;3.27;;
13439;SDS011;6792;57.698;11.946;2022-12-07T03:11:32;4.23;;;2.73;;
13439;SDS011;6792;57.698;11.946;2022-12-07T03:14:07;6.13;;;3.00;;
13439;SDS011;6792;57.698;11.946;2022-12-07T03:16:37;3.43;;;2.50;;
13439;SDS011;6792;57.698;11.946;2022-12-07T03:19:09;6.77;;;2.93;;
13439;SDS011;6792;57.698;11.946;2022-12-07T03:21:41;4.10;;;2.30;;
13439;SDS011;6792;57.698;11.946;2022-12-07T03:24:13;5.73;;;2.80;;
13439;SDS011;6792;57.698;11.946;2022-12-07T03:26:46;4.30;;;2.67;;
13439;SDS011;6792;57.698;11.946;2022-12-07T03:29:19;6.63;;;2.67;;
13439;SDS011;6792;57.698;11.946;2022-12-07T03:31:51;4.93;;;2.50;;
13439;SDS011;6792;57.698;11.946;2022-12-07T03:34:22;5.93;;;2.60;;
13439;SDS011;6792;57.698;11.946;2022-12-07T03:36:54;6.07;;;2.87;;
13439;SDS011;6792;57.698;11.946;2022-12-07T03:39:27;5.37;;;2.37;;
13439;SDS011;6792;57.698;11.946;2022-12-07T03:41:58;3.77;;;2.17;;
13439;SDS011;6792;57.698;11.946;2022-12-07T03:44:30;4.77;;;2.33;;
13439;SDS011;6792;57.698;11.946;2022-12-07T03:47:04;5.10;;;2.20;;
13439;SDS011;6792;57.698;11.946;2022-12-07T03:49:37;4.70;;;2.30;;
13439;SDS011;6792;57.698;11.946;2022-12-07T03:52:08;3.80;;;2.60;;
13439;SDS011;6792;57.698;11.946;2022-12-07T03:54:41;3.57;;;2.70;;
13439;SDS011;6792;57.698;11.946;2022-12-07T03:57:13;3.80;;;2.80;;
13439;SDS011;6792;57.698;11.946;2022-12-07T03:59:43;5.80;;;2.57;;
13439;SDS011;6792;57.698;11.946;2022-12-07T04:02:14;3.93;;;2.17;;
13439;SDS011;6792;57.698;11.946;2022-12-07T04:04:43;5.33;;;2.50;;
13439;SDS011;6792;57.698;11.946;2022-12-07T04:07:13;6.00;;;2.70;;
13439;SDS011;6792;57.698;11.946;2022-12-07T04:09:42;5.17;;;2.60;;
13439;SDS011;6792;57.698;11.946;2022-12-07T04:12:11;5.33;;;2.63;;
13439;SDS011;6792;57.698;11.946;2022-12-07T04:14:40;2.40;;;2.07;;
13439;SDS011;6792;57.698;11.946;2022-12-07T04:17:09;5.77;;;2.67;;
13439;SDS011;6792;57.698;11.946;2022-12-07T04:19:39;5.00;;;2.50;;
13439;SDS011;6792;57.698;11.946;2022-12-07T04:22:08;3.63;;;2.10;;
13439;SDS011;6792;57.698;11.946;2022-12-07T04:24:38;4.33;;;2.17;;
13439;SDS011;6792;57.698;11.946;2022-12-07T04:27:07;5.07;;;2.20;;
13439;SDS011;6792;57.698;11.946;2022-12-07T04:29:36;6.40;;;2.27;;
13439;SDS011;6792;57.698;11.946;2022-12-07T04:32:06;4.20;;;1.97;;
13439;SDS011;6792;57.698;11.946;2022-12-07T04:34:35;4.50;;;2.10;;
13439;SDS011;6792;57.698;11.946;2022-12-07T04:37:04;3.43;;;2.00;;
13439;SDS011;6792;57.698;11.946;2022-12-07T04:39:33;3.40;;;2.10;;
13439;SDS011;6792;57.698;11.946;2022-12-07T04:42:03;4.73;;;2.07;;
13439;SDS011;6792;57.698;11.946;2022-12-07T04:44:34;4.03;;;1.50;;
13439;SDS011;6792;57.698;11.946;2022-12-07T04:47:03;3.70;;;1.90;;
13439;SDS011;6792;57.698;11.946;2022-12-07T04:49:34;2.83;;;1.37;;
13439;SDS011;6792;57.698;11.946;2022-12-07T04:52:03;1.93;;;1.27;;
13439;SDS011;6792;57.698;11.946;2022-12-07T04:54:33;4.10;;;1.40;;
13439;SDS011;6792;57.698;11.946;2022-12-07T04:57:02;2.63;;;1.37;;
13439;SDS011;6792;57.698;11.946;2022-12-07T04:59:31;2.53;;;1.47;;
13439;SDS011;6792;57.698;11.946;2022-12-07T05:02:00;3.07;;;1.10;;
13439;SDS011;6792;57.698;11.946;2022-12-07T05:04:29;2.20;;;1.03;;
13439;SDS011;6792;57.698;11.946;2022-12-07T05:06:59;6.60;;;1.27;;
13439;SDS011;6792;57.698;11.946;2022-12-07T05:09:28;1.83;;;0.87;;
13439;SDS011;6792;57.698;11.946;2022-12-07T05:11:57;3.20;;;1.10;;
13439;SDS011;6792;57.698;11.946;2022-12-07T05:14:26;2.13;;;0.90;;
13439;SDS011;6792;57.698;11.946;2022-12-07T05:16:55;2.50;;;1.37;;
13439;SDS011;6792;57.698;11.946;2022-12-07T05:19:24;5.70;;;1.30;;
13439;SDS011;6792;57.698;11.946;2022-12-07T05:21:53;2.03;;;1.13;;
13439;SDS011;6792;57.698;11.946;2022-12-07T05:24:22;1.50;;;0.93;;
13439;SDS011;6792;57.698;11.946;2022-12-07T05:26:51;2.60;;;1.00;;
13439;SDS011;6792;57.698;11.946;2022-12-07T05:29:20;2.07;;;0.97;;
13439;SDS011;6792;57.698;11.946;2022-12-07T05:31:49;3.07;;;0.77;;
13439;SDS011;6792;57.698;11.946;2022-12-07T05:34:19;2.30;;;1.30;;
13439;SDS011;6792;57.698;11.946;2022-12-07T05:36:48;1.73;;;1.03;;
13439;SDS011;6792;57.698;11.946;2022-12-07T05:39:17;2.83;;;1.10;;
13439;SDS011;6792;57.698;11.946;2022-12-07T05:41:46;4.33;;;1.07;;
13439;SDS011;6792;57.698;11.946;2022-12-07T05:44:33;3.70;;;1.20;;
13439;SDS011;6792;57.698;11.946;2022-12-07T05:47:02;1.90;;;1.13;;
13439;SDS011;6792;57.698;11.946;2022-12-07T05:49:31;4.47;;;1.63;;
13439;SDS011;6792;57.698;11.946;2022-12-07T05:52:01;2.37;;;1.50;;
13439;SDS011;6792;57.698;11.946;2022-12-07T05:54:30;3.47;;;1.83;;
13439;SDS011;6792;57.698;11.946;2022-12-07T05:57:00;4.73;;;1.80;;
13439;SDS011;6792;57.698;11.946;2022-12-07T05:59:29;4.73;;;2.00;;
13439;SDS011;6792;57.698;11.946;2022-12-07T06:02:00;4.13;;;1.93;;
13439;SDS011;6792;57.698;11.946;2022-12-07T06:04:32;3.63;;;1.90;;
13439;SDS011;6792;57.698;11.946;2022-12-07T06:07:03;5.40;;;1.83;;
13439;SDS011;6792;57.698;11.946;2022-12-07T06:09:32;4.07;;;2.17;;
13439;SDS011;6792;57.698;11.946;2022-12-07T06:12:03;4.30;;;1.90;;
13439;SDS011;6792;57.698;11.946;2022-12-07T06:14:51;4.17;;;1.63;;
13439;SDS011;6792;57.698;11.946;2022-12-07T06:17:20;3.43;;;1.90;;
13439;SDS011;6792;57.698;11.946;2022-12-07T06:19:49;3.87;;;1.87;;
13439;SDS011;6792;57.698;11.946;2022-12-07T06:22:18;6.53;;;1.80;;
13439;SDS011;6792;57.698;11.946;2022-12-07T06:24:47;4.40;;;1.70;;
13439;SDS011;6792;57.698;11.946;2022-12-07T06:27:17;5.70;;;1.83;;
13439;SDS011;6792;57.698;11.946;2022-12-07T06:29:46;5.63;;;1.97;;
13439;SDS011;6792;57.698;11.946;2022-12-07T06:32:15;3.37;;;1.70;;
13439;SDS011;6792;57.698;11.946;2022-12-07T06:34:44;3.67;;;1.63;;
13439;SDS011;6792;57.698;11.946;2022-12-07T06:37:14;1.93;;;1.33;;
13439;SDS011;6792;57.698;11.946;2022-12-07T06:39:43;4.83;;;1.50;;
13439;SDS011;6792;57.698;11.946;2022-12-07T06:42:12;3.93;;;1.47;;
13439;SDS011;6792;57.698;11.946;2022-12-07T06:44:41;4.50;;;2.10;;
13439;SDS011;6792;57.698;11.946;2022-12-07T06:47:11;3.17;;;1.53;;
13439;SDS011;6792;57.698;11.946;2022-12-07T06:49:40;4.43;;;1.90;;
13439;SDS011;6792;57.698;11.946;2022-12-07T06:52:09;2.93;;;1.77;;
13439;SDS011;6792;57.698;11.946;2022-12-07T06:54:38;4.67;;;1.80;;
13439;SDS011;6792;57.698;11.946;2022-12-07T06:57:07;4.03;;;1.73;;
13439;SDS011;6792;57.698;11.946;2022-12-07T06:59:37;8.07;;;1.83;;
13439;SDS011;6792;57.698;11.946;2022-12-07T07:02:07;2.10;;;1.30;;
13439;SDS011;6792;57.698;11.946;2022-12-07T07:04:37;5.00;;;1.87;;
13439;SDS011;6792;57.698;11.946;2022-12-07T07:07:09;3.23;;;1.60;;
13439;SDS011;6792;57.698;11.946;2022-12-07T07:09:38;5.50;;;1.53;;
13439;SDS011;6792;57.698;11.946;2022-12-07T07:12:07;2.33;;;1.47;;
13439;SDS011;6792;57.698;11.946;2022-12-07T07:14:36;3.33;;;1.27;;
13439;SDS011;6792;57.698;11.946;2022-12-07T07:17:06;5.73;;;1.60;;
13439;SDS011;6792;57.698;11.946;2022-12-07T07:19:35;3.90;;;1.23;;
13439;SDS011;6792;57.698;11.946;2022-12-07T07:22:04;7.20;;;1.63;;
13439;SDS011;6792;57.698;11.946;2022-12-07T07:24:33;3.83;;;1.37;;
13439;SDS011;6792;57.698;11.946;2022-12-07T07:27:03;1.83;;;1.40;;
13439;SDS011;6792;57.698;11.946;2022-12-07T07:29:32;3.07;;;1.30;;
13439;SDS011;6792;57.698;11.946;2022-12-07T07:32:01;4.37;;;1.40;;
13439;SDS011;6792;57.698;11.946;2022-12-07T07:34:31;1.63;;;1.30;;
13439;SDS011;6792;57.698;11.946;2022-12-07T07:37:04;3.77;;;1.20;;
13439;SDS011;6792;57.698;11.946;2022-12-07T07:39:36;2.70;;;1.30;;
13439;SDS011;6792;57.698;11.946;2022-12-07T07:42:05;2.47;;;1.40;;
13439;SDS011;6792;57.698;11.946;2022-12-07T07:44:34;2.27;;;1.33;;
13439;SDS011;6792;57.698;11.946;2022-12-07T07:47:04;2.83;;;1.07;;
13439;SDS011;6792;57.698;11.946;2022-12-07T07:49:33;4.03;;;1.20;;
13439;SDS011;6792;57.698;11.946;2022-12-07T07:52:03;4.70;;;1.37;;
13439;SDS011;6792;57.698;11.946;2022-12-07T07:54:33;4.60;;;1.30;;
13439;SDS011;6792;57.698;11.946;2022-12-07T07:57:04;2.80;;;1.30;;
13439;SDS011;6792;57.698;11.946;2022-12-07T07:59:34;2.10;;;1.20;;
13439;SDS011;6792;57.698;11.946;2022-12-07T08:02:05;4.43;;;1.27;;
13439;SDS011;6792;57.698;11.946;2022-12-07T08:04:36;3.80;;;1.23;;
13439;SDS011;6792;57.698;11.946;2022-12-07T08:07:05;3.37;;;1.37;;
13439;SDS011;6792;57.698;11.946;2022-12-07T08:09:37;1.77;;;1.27;;
13439;SDS011;6792;57.698;11.946;2022-12-07T08:12:06;1.77;;;1.03;;
13439;SDS011;6792;57.698;11.946;2022-12-07T08:14:36;1.63;;;0.90;;
13439;SDS011;6792;57.698;11.946;2022-12-07T08:17:05;1.10;;;0.90;;
13439;SDS011;6792;57.698;11.946;2022-12-07T08:19:34;2.63;;;0.93;;
13439;SDS011;6792;57.698;11.946;2022-12-07T08:22:03;4.73;;;1.23;;
13439;SDS011;6792;57.698;11.946;2022-12-07T08:24:33;1.50;;;1.03;;
13439;SDS011;6792;57.698;11.946;2022-12-07T08:27:03;3.67;;;1.07;;
13439;SDS011;6792;57.698;11.946;2022-12-07T08:29:35;2.03;;;0.90;;
13439;SDS011;6792;57.698;11.946;2022-12-07T08:32:04;3.40;;;0.87;;
13439;SDS011;6792;57.698;11.946;2022-12-07T08:34:33;1.80;;;0.93;;
13439;SDS011;6792;57.698;11.946;2022-12-07T08:37:03;1.13;;;0.80;;
13439;SDS011;6792;57.698;11.946;2022-12-07T08:42:25;1.40;;;1.00;;
13439;SDS011;6792;57.698;11.946;2022-12-07T08:44:54;3.07;;;0.80;;
13439;SDS011;6792;57.698;11.946;2022-12-07T08:47:24;4.13;;;1.00;;
13439;SDS011;6792;57.698;11.946;2022-12-07T08:49:53;1.73;;;0.90;;
13439;SDS011;6792;57.698;11.946;2022-12-07T08:52:22;1.90;;;0.90;;
13439;SDS011;6792;57.698;11.946;2022-12-07T08:54:52;3.70;;;0.87;;
13439;SDS011;6792;57.698;11.946;2022-12-07T08:57:21;1.83;;;0.87;;
13439;SDS011;6792;57.698;11.946;2022-12-07T08:59:50;2.43;;;0.93;;
13439;SDS011;6792;57.698;11.946;2022-12-07T09:02:19;1.53;;;0.90;;
13439;SDS011;6792;57.698;11.946;2022-12-07T09:04:48;2.00;;;0.80;;
13439;SDS011;6792;57.698;11.946;2022-12-07T09:07:17;4.87;;;1.00;;
13439;SDS011;6792;57.698;11.946;2022-12-07T09:09:46;1.83;;;0.97;;
13439;SDS011;6792;57.698;11.946;2022-12-07T09:12:15;1.20;;;0.90;;
13439;SDS011;6792;57.698;11.946;2022-12-07T09:14:45;1.93;;;1.03;;
13439;SDS011;6792;57.698;11.946;2022-12-07T09:17:14;2.53;;;1.10;;
13439;SDS011;6792;57.698;11.946;2022-12-07T09:19:43;0.90;;;0.90;;
13439;SDS011;6792;57.698;11.946;2022-12-07T09:22:12;1.53;;;0.83;;
13439;SDS011;6792;57.698;11.946;2022-12-07T09:24:41;3.33;;;0.83;;
13439;SDS011;6792;57.698;11.946;2022-12-07T09:27:11;3.30;;;1.63;;
13439;SDS011;6792;57.698;11.946;2022-12-07T09:29:41;4.47;;;1.80;;
13439;SDS011;6792;57.698;11.946;2022-12-07T09:32:10;5.90;;;1.40;;
13439;SDS011;6792;57.698;11.946;2022-12-07T09:34:39;1.40;;;0.87;;
13439;SDS011;6792;57.698;11.946;2022-12-07T09:37:08;2.83;;;1.33;;
13439;SDS011;6792;57.698;11.946;2022-12-07T09:39:38;4.13;;;1.40;;
13439;SDS011;6792;57.698;11.946;2022-12-07T09:42:08;6.00;;;1.70;;
13439;SDS011;6792;57.698;11.946;2022-12-07T09:44:40;3.13;;;1.20;;
13439;SDS011;6792;57.698;11.946;2022-12-07T09:47:09;3.03;;;1.20;;
13439;SDS011;6792;57.698;11.946;2022-12-07T09:49:39;1.83;;;0.90;;
13439;SDS011;6792;57.698;11.946;2022-12-07T09:52:17;3.70;;;1.13;;
13439;SDS011;6792;57.698;11.946;2022-12-07T09:54:49;2.23;;;1.23;;
13439;SDS011;6792;57.698;11.946;2022-12-07T09:57:27;2.40;;;1.00;;
13439;SDS011;6792;57.698;11.946;2022-12-07T09:59:52;2.43;;;1.07;;
13439;SDS011;6792;57.698;11.946;2022-12-07T10:02:25;1.47;;;0.63;;
13439;SDS011;6792;57.698;11.946;2022-12-07T10:04:59;9.67;;;1.07;;
13439;SDS011;6792;57.698;11.946;2022-12-07T10:07:28;1.57;;;0.77;;
13439;SDS011;6792;57.698;11.946;2022-12-07T10:09:58;4.30;;;1.13;;
13439;SDS011;6792;57.698;11.946;2022-12-07T10:12:30;1.70;;;0.80;;
13439;SDS011;6792;57.698;11.946;2022-12-07T10:15:02;4.27;;;1.23;;
13439;SDS011;6792;57.698;11.946;2022-12-07T10:17:34;2.03;;;0.77;;
13439;SDS011;6792;57.698;11.946;2022-12-07T10:20:14;3.03;;;0.67;;
13439;SDS011;6792;57.698;11.946;2022-12-07T10:22:55;2.13;;;0.90;;
13439;SDS011;6792;57.698;11.946;2022-12-07T10:25:31;3.60;;;0.80;;
13439;SDS011;6792;57.698;11.946;2022-12-07T10:28:13;3.77;;;0.70;;
13439;SDS011;6792;57.698;11.946;2022-12-07T10:30:48;1.30;;;0.80;;
13439;SDS011;6792;57.698;11.946;2022-12-07T10:33:30;2.93;;;0.90;;
13439;SDS011;6792;57.698;11.946;2022-12-07T10:36:16;4.03;;;0.90;;
13439;SDS011;6792;57.698;11.946;2022-12-07T10:38:48;5.07;;;0.87;;
13439;SDS011;6792;57.698;11.946;2022-12-07T10:41:19;1.43;;;0.80;;
13439;SDS011;6792;57.698;11.946;2022-12-07T10:43:50;2.53;;;1.03;;
13439;SDS011;6792;57.698;11.946;2022-12-07T10:46:45;3.40;;;1.00;;
13439;SDS011;6792;57.698;11.946;2022-12-07T10:52:38;3.50;;;1.00;;
13439;SDS011;6792;57.698;11.946;2022-12-07T10:55:17;1.60;;;0.90;;
13439;SDS011;6792;57.698;11.946;2022-12-07T10:57:55;4.13;;;1.10;;
13439;SDS011;6792;57.698;11.946;2022-12-07T11:00:29;1.50;;;0.90;;
13439;SDS011;6792;57.698;11.946;2022-12-07T11:06:10;3.10;;;0.80;;
13439;SDS011;6792;57.698;11.946;2022-12-07T11:08:47;3.50;;;1.10;;
13439;SDS011;6792;57.698;11.946;2022-12-07T11:11:23;6.53;;;1.10;;
13439;SDS011;6792;57.698;11.946;2022-12-07T11:13:56;2.83;;;1.10;;
13439;SDS011;6792;57.698;11.946;2022-12-07T11:16:36;5.37;;;1.20;;
13439;SDS011;6792;57.698;11.946;2022-12-07T11:19:18;5.83;;;1.33;;
13439;SDS011;6792;57.698;11.946;2022-12-07T11:21:53;2.40;;;1.00;;
13439;SDS011;6792;57.698;11.946;2022-12-07T11:24:24;3.27;;;1.00;;
13439;SDS011;6792;57.698;11.946;2022-12-07T11:27:00;1.60;;;0.87;;
13439;SDS011;6792;57.698;11.946;2022-12-07T11:32:37;3.23;;;1.07;;
13439;SDS011;6792;57.698;11.946;2022-12-07T11:35:15;1.53;;;1.10;;
13439;SDS011;6792;57.698;11.946;2022-12-07T11:37:49;4.23;;;1.07;;
13439;SDS011;6792;57.698;11.946;2022-12-07T11:40:22;1.50;;;1.03;;
13439;SDS011;6792;57.698;11.946;2022-12-07T11:42:55;2.80;;;1.20;;
13439;SDS011;6792;57.698;11.946;2022-12-07T11:45:27;2.33;;;0.80;;
13439;SDS011;6792;57.698;11.946;2022-12-07T11:47:59;3.30;;;0.80;;
13439;SDS011;6792;57.698;11.946;2022-12-07T11:50:33;1.00;;;0.73;;
13439;SDS011;6792;57.698;11.946;2022-12-07T11:53:09;7.07;;;1.27;;
13439;SDS011;6792;57.698;11.946;2022-12-07T11:55:41;5.00;;;1.20;;
13439;SDS011;6792;57.698;11.946;2022-12-07T11:58:18;3.03;;;0.73;;
13439;SDS011;6792;57.698;11.946;2022-12-07T12:00:51;3.70;;;0.70;;
13439;SDS011;6792;57.698;11.946;2022-12-07T12:03:28;2.73;;;0.90;;
13439;SDS011;6792;57.698;11.946;2022-12-07T12:05:58;7.80;;;1.47;;
13439;SDS011;6792;57.698;11.946;2022-12-07T12:08:28;4.40;;;1.20;;
13439;SDS011;6792;57.698;11.946;2022-12-07T12:11:02;7.20;;;1.17;;
13439;SDS011;6792;57.698;11.946;2022-12-07T12:13:49;4.30;;;1.00;;
13439;SDS011;6792;57.698;11.946;2022-12-07T12:16:54;2.77;;;1.07;;
13439;SDS011;6792;57.698;11.946;2022-12-07T12:19:34;3.60;;;0.87;;
13439;SDS011;6792;57.698;11.946;2022-12-07T12:22:09;6.43;;;1.70;;
13439;SDS011;6792;57.698;11.946;2022-12-07T12:24:40;3.57;;;1.23;;
13439;SDS011;6792;57.698;11.946;2022-12-07T12:27:15;3.97;;;1.60;;
13439;SDS011;6792;57.698;11.946;2022-12-07T12:29:50;3.97;;;1.63;;
13439;SDS011;6792;57.698;11.946;2022-12-07T12:32:21;3.10;;;1.37;;
13439;SDS011;6792;57.698;11.946;2022-12-07T12:35:00;5.57;;;1.37;;
13439;SDS011;6792;57.698;11.946;2022-12-07T12:37:44;6.53;;;1.50;;
13439;SDS011;6792;57.698;11.946;2022-12-07T12:46:44;7.57;;;1.07;;
13439;SDS011;6792;57.698;11.946;2022-12-07T12:49:32;1.20;;;0.80;;
13439;SDS011;6792;57.698;11.946;2022-12-07T12:55:44;5.33;;;1.10;;
13439;SDS011;6792;57.698;11.946;2022-12-07T12:58:39;2.80;;;1.07;;
13439;SDS011;6792;57.698;11.946;2022-12-07T13:01:36;3.20;;;0.90;;
13439;SDS011;6792;57.698;11.946;2022-12-07T13:04:34;1.30;;;0.80;;
13439;SDS011;6792;57.698;11.946;2022-12-07T13:07:11;1.67;;;0.80;;
13439;SDS011;6792;57.698;11.946;2022-12-07T13:09:43;2.70;;;0.53;;
13439;SDS011;6792;57.698;11.946;2022-12-07T13:12:13;2.10;;;0.83;;
13439;SDS011;6792;57.698;11.946;2022-12-07T13:14:53;0.77;;;0.60;;
13439;SDS011;6792;57.698;11.946;2022-12-07T13:20:48;2.00;;;1.17;;
13439;SDS011;6792;57.698;11.946;2022-12-07T13:23:21;2.83;;;0.73;;
13439;SDS011;6792;57.698;11.946;2022-12-07T13:26:03;4.37;;;0.60;;
13439;SDS011;6792;57.698;11.946;2022-12-07T13:28:40;2.33;;;0.90;;
13439;SDS011;6792;57.698;11.946;2022-12-07T13:31:19;1.73;;;0.93;;
13439;SDS011;6792;57.698;11.946;2022-12-07T13:34:01;3.40;;;0.73;;
13439;SDS011;6792;57.698;11.946;2022-12-07T13:36:32;4.40;;;1.03;;
13439;SDS011;6792;57.698;11.946;2022-12-07T13:39:18;4.03;;;1.20;;
13439;SDS011;6792;57.698;11.946;2022-12-07T13:41:52;2.33;;;0.70;;
13439;SDS011;6792;57.698;11.946;2022-12-07T13:44:24;1.33;;;0.50;;
13439;SDS011;6792;57.698;11.946;2022-12-07T13:46:57;1.93;;;0.80;;
13439;SDS011;6792;57.698;11.946;2022-12-07T13:49:30;1.97;;;0.97;;
13439;SDS011;6792;57.698;11.946;2022-12-07T13:52:12;3.67;;;0.87;;
13439;SDS011;6792;57.698;11.946;2022-12-07T13:54:44;1.43;;;0.70;;
13439;SDS011;6792;57.698;11.946;2022-12-07T13:57:16;2.37;;;1.07;;
13439;SDS011;6792;57.698;11.946;2022-12-07T13:59:45;1.47;;;1.07;;
13439;SDS011;6792;57.698;11.946;2022-12-07T14:02:19;4.83;;;1.10;;
13439;SDS011;6792;57.698;11.946;2022-12-07T14:05:05;3.73;;;1.20;;
13439;SDS011;6792;57.698;11.946;2022-12-07T14:07:34;1.60;;;1.00;;
13439;SDS011;6792;57.698;11.946;2022-12-07T14:10:04;2.97;;;0.90;;
13439;SDS011;6792;57.698;11.946;2022-12-07T14:12:36;2.90;;;1.13;;
13439;SDS011;6792;57.698;11.946;2022-12-07T14:15:15;1.57;;;1.00;;
13439;SDS011;6792;57.698;11.946;2022-12-07T14:17:51;4.10;;;0.93;;
13439;SDS011;6792;57.698;11.946;2022-12-07T14:20:34;2.87;;;1.03;;
13439;SDS011;6792;57.698;11.946;2022-12-07T14:23:03;3.40;;;1.20;;
13439;SDS011;6792;57.698;11.946;2022-12-07T14:25:45;2.37;;;1.00;;
13439;SDS011;6792;57.698;11.946;2022-12-07T14:28:25;5.90;;;1.17;;
13439;SDS011;6792;57.698;11.946;2022-12-07T14:30:56;15.93;;;3.00;;
13439;SDS011;6792;57.698;11.946;2022-12-07T14:33:27;8.40;;;1.40;;
13439;SDS011;6792;57.698;11.946;2022-12-07T14:35:57;5.13;;;1.33;;
13439;SDS011;6792;57.698;11.946;2022-12-07T14:38:26;3.10;;;1.20;;
13439;SDS011;6792;57.698;11.946;2022-12-07T14:40:55;1.70;;;0.90;;
13439;SDS011;6792;57.698;11.946;2022-12-07T14:43:46;2.80;;;1.10;;
13439;SDS011;6792;57.698;11.946;2022-12-07T14:46:15;2.07;;;0.90;;
13439;SDS011;6792;57.698;11.946;2022-12-07T14:48:44;2.20;;;1.47;;
13439;SDS011;6792;57.698;11.946;2022-12-07T14:51:14;5.47;;;1.53;;
13439;SDS011;6792;57.698;11.946;2022-12-07T14:53:44;3.83;;;1.23;;
13439;SDS011;6792;57.698;11.946;2022-12-07T14:56:16;4.60;;;1.57;;
13439;SDS011;6792;57.698;11.946;2022-12-07T14:58:45;2.20;;;1.07;;
13439;SDS011;6792;57.698;11.946;2022-12-07T15:01:14;5.83;;;1.47;;
13439;SDS011;6792;57.698;11.946;2022-12-07T15:03:43;5.73;;;1.40;;
13439;SDS011;6792;57.698;11.946;2022-12-07T15:06:14;6.63;;;1.17;;
13439;SDS011;6792;57.698;11.946;2022-12-07T15:08:47;3.63;;;1.17;;
13439;SDS011;6792;57.698;11.946;2022-12-07T15:11:16;2.90;;;1.10;;
13439;SDS011;6792;57.698;11.946;2022-12-07T15:13:46;2.17;;;1.00;;
13439;SDS011;6792;57.698;11.946;2022-12-07T15:16:36;1.17;;;0.93;;
13439;SDS011;6792;57.698;11.946;2022-12-07T15:19:08;3.17;;;1.00;;
13439;SDS011;6792;57.698;11.946;2022-12-07T15:21:40;2.97;;;1.00;;
13439;SDS011;6792;57.698;11.946;2022-12-07T15:24:10;3.47;;;1.20;;
13439;SDS011;6792;57.698;11.946;2022-12-07T15:26:40;3.57;;;1.47;;
13439;SDS011;6792;57.698;11.946;2022-12-07T15:29:10;3.93;;;1.30;;
13439;SDS011;6792;57.698;11.946;2022-12-07T15:31:40;3.00;;;1.30;;
13439;SDS011;6792;57.698;11.946;2022-12-07T15:34:10;2.63;;;1.60;;
13439;SDS011;6792;57.698;11.946;2022-12-07T15:36:39;4.13;;;1.60;;
13439;SDS011;6792;57.698;11.946;2022-12-07T15:39:08;3.90;;;1.30;;
13439;SDS011;6792;57.698;11.946;2022-12-07T15:41:38;3.43;;;1.60;;
13439;SDS011;6792;57.698;11.946;2022-12-07T15:44:08;2.67;;;1.30;;
13439;SDS011;6792;57.698;11.946;2022-12-07T15:46:56;4.47;;;1.50;;